Terminal Aerodrome Forecast
Issued by NWS Pueblo, CO

Home | Current Version | Previous Version | Text Only | Print | Product List | Glossary On
Versions: 1 2 3 4 5 6 7 8 9 10 11 12 13 14 15 16 17 18 19 20 21 22 23 24 25 26 27 28 29 30 31 32 33 34 35 36 37 38 39 40 41 42 43 44 45 46 47 48 49 50
000
FTUS45 KPUB 211740
TAFPUB
TAF
KPUB 211740Z 2118/2218 15007KT P6SM FEW090 SCT250
     FM220000 35020G40KT P6SM VCTS BKN070CB
     FM220400 35012KT P6SM BKN110
     FM220900 VRB06KT P6SM SCT110 SCT200=

USA.gov is the U.S. government's official web portal to all federal, state and local government web resources and services.